createdAt,value
2019-03-29T11:08:33.393Z,18.20
2019-03-29T11:11:07.841Z,17.70
2019-03-29T11:13:42.374Z,17.90
2019-03-29T11:16:16.822Z,18.10
2019-03-29T11:18:51.304Z,18.10
2019-03-29T11:21:25.795Z,18.40
2019-03-29T11:24:00.743Z,18.30
2019-03-29T11:26:35.179Z,18.20
2019-03-29T11:29:09.655Z,18.20
2019-03-29T11:31:44.092Z,18.30
2019-03-29T11:34:21.075Z,18.50
2019-03-29T11:36:55.846Z,18.40
2019-03-29T11:39:30.310Z,18.30
2019-03-29T11:42:06.395Z,18.70
2019-03-29T11:44:42.503Z,18.60
2019-03-29T11:47:21.519Z,18.20
2019-03-29T11:49:55.991Z,18.50
2019-03-29T11:52:33.648Z,18.60
2019-03-29T11:55:07.687Z,18.40
2019-03-29T11:57:42.124Z,18.30
2019-03-29T12:00:19.855Z,18.30
2019-03-29T12:02:55.457Z,18.30
2019-03-29T12:05:29.889Z,18.30
2019-03-29T12:08:04.724Z,18.00
2019-03-29T12:10:39.208Z,17.90
2019-03-29T12:13:13.625Z,17.80
2019-03-29T12:15:48.164Z,17.80
2019-03-29T12:18:25.466Z,17.90
2019-03-29T12:20:59.956Z,17.80
2019-03-29T12:23:34.404Z,18.00
2019-03-29T12:26:08.935Z,17.90
2019-03-29T12:28:43.380Z,18.00
2019-03-29T12:31:17.846Z,17.80
2019-03-29T12:33:52.287Z,17.80
2019-03-29T12:36:26.761Z,17.80
2019-03-29T12:39:01.852Z,17.70
2019-03-29T12:41:36.388Z,17.80
2019-03-29T12:44:10.828Z,17.80
2019-03-29T12:46:45.308Z,17.70
2019-03-29T12:49:39.170Z,17.80
2019-03-29T12:52:13.642Z,18.00
2019-03-29T12:54:48.101Z,18.20
2019-03-29T12:57:22.548Z,18.00
2019-03-29T12:59:56.988Z,17.50
2019-03-29T13:02:34.352Z,17.30
2019-03-29T13:05:07.787Z,17.20
2019-03-29T13:07:42.332Z,17.40
2019-03-29T13:10:16.854Z,17.40
2019-03-29T13:12:52.535Z,17.50
2019-03-29T13:15:27.039Z,17.60
2019-03-29T13:18:01.509Z,17.70
2019-03-29T13:20:35.934Z,17.60
2019-03-29T13:23:10.413Z,17.30
2019-03-29T13:25:44.850Z,17.30
2019-03-29T13:28:19.756Z,17.40
2019-03-29T13:30:55.268Z,17.40
2019-03-29T13:33:29.766Z,17.20
2019-03-29T13:36:04.207Z,17.30
2019-03-29T13:38:38.860Z,17.30
2019-03-29T13:41:13.260Z,17.20
2019-03-29T13:43:47.737Z,16.90
2019-03-29T13:46:22.167Z,16.70
2019-03-29T13:48:56.644Z,16.50
2019-03-29T13:51:31.084Z,16.50
2019-03-29T13:54:05.550Z,16.30
2019-03-29T13:56:39.978Z,16.30
2019-03-29T13:59:14.450Z,16.30
2019-03-29T14:01:48.890Z,16.30
2019-03-29T14:04:23.353Z,16.30
2019-03-29T14:07:00.000Z,16.20
2019-03-29T14:09:34.467Z,16.20
2019-03-29T14:12:08.911Z,16.30
2019-03-29T14:14:43.385Z,16.30
2019-03-29T14:17:20.652Z,16.20
2019-03-29T14:19:55.107Z,16.10
2019-03-29T14:22:29.553Z,16.10
2019-03-29T14:25:06.639Z,16.10
2019-03-29T14:27:41.740Z,16.10
2019-03-29T14:30:16.213Z,16.00
2019-03-29T14:32:51.826Z,15.80
2019-03-29T14:35:26.306Z,15.80
2019-03-29T14:38:02.850Z,15.70
2019-03-29T14:40:38.083Z,15.60
2019-03-29T14:43:13.684Z,15.60
2019-03-29T14:45:48.152Z,15.60
2019-03-29T14:48:22.591Z,15.60
2019-03-29T14:50:57.064Z,15.60
2019-03-29T14:53:31.507Z,15.70
2019-03-29T14:56:05.975Z,15.70
2019-03-29T14:58:40.418Z,15.70
2019-03-29T15:01:15.138Z,15.80
2019-03-29T15:03:49.584Z,15.70
2019-03-29T15:06:24.094Z,15.60
2019-03-29T15:08:58.526Z,15.50
2019-03-29T15:11:33.019Z,15.60
2019-03-29T15:14:07.470Z,15.60
2019-03-29T15:16:42.811Z,15.60
2019-03-29T15:19:17.331Z,15.60
2019-03-29T15:21:51.798Z,15.50
2019-03-29T15:24:26.235Z,15.50
2019-03-29T15:27:00.717Z,15.40
2019-03-29T15:29:35.165Z,15.40
2019-03-29T15:32:09.752Z,15.60
2019-03-29T15:34:45.178Z,15.60
2019-03-29T15:37:19.652Z,15.70
2019-03-29T15:39:54.113Z,15.70
2019-03-29T15:42:28.576Z,15.50
2019-03-29T15:45:03.455Z,15.40
2019-03-29T15:47:40.210Z,15.30
2019-03-29T15:50:14.012Z,15.10
2019-03-29T15:52:48.487Z,14.90
2019-03-29T15:55:22.923Z,14.90
2019-03-29T15:57:57.403Z,14.90
2019-03-29T16:00:31.812Z,14.80
2019-03-29T16:03:06.256Z,14.70
2019-03-29T16:05:40.706Z,14.70
2019-03-29T16:08:15.200Z,14.70
2019-03-29T16:10:49.643Z,14.50
2019-03-29T16:13:24.130Z,14.50
2019-03-29T16:15:58.573Z,14.40
2019-03-29T16:18:35.469Z,14.30
2019-03-29T16:21:09.924Z,14.30
2019-03-29T16:23:44.401Z,14.20
2019-03-29T16:26:18.842Z,14.20
2019-03-29T16:28:53.895Z,14.10
2019-03-29T16:31:28.356Z,14.00
2019-03-29T16:34:02.860Z,13.90
2019-03-29T16:36:37.316Z,13.80
2019-03-29T16:39:11.799Z,13.70
2019-03-29T16:41:46.886Z,13.70
2019-03-29T16:44:21.332Z,13.60
2019-03-29T16:46:55.776Z,13.60
2019-03-29T16:49:30.833Z,13.50
2019-03-29T16:52:05.274Z,13.40
2019-03-29T16:54:39.760Z,13.40
2019-03-29T16:57:16.669Z,13.40
2019-03-29T16:59:50.398Z,13.30
2019-03-29T17:02:24.830Z,13.20
2019-03-29T17:04:59.315Z,13.20
2019-03-29T17:07:33.778Z,13.10
2019-03-29T17:10:08.845Z,12.90
2019-03-29T17:12:43.298Z,12.70
2019-03-29T17:15:17.779Z,12.70
2019-03-29T17:17:52.231Z,12.60
2019-03-29T17:20:27.378Z,12.50
2019-03-29T17:23:01.903Z,12.40
2019-03-29T17:25:36.393Z,12.30
2019-03-29T17:28:10.846Z,12.20
2019-03-29T17:30:46.971Z,12.10
2019-03-29T17:33:24.677Z,12.00
2019-03-29T17:36:00.818Z,12.00
2019-03-29T17:38:36.888Z,12.00
2019-03-29T17:41:11.628Z,11.90
2019-03-29T17:43:46.086Z,11.90
2019-03-29T17:46:20.664Z,11.90
2019-03-29T17:48:55.086Z,11.80
2019-03-29T17:51:29.571Z,11.80
2019-03-29T17:54:04.013Z,11.70
2019-03-29T17:56:38.489Z,11.60
2019-03-29T17:59:12.930Z,11.60
2019-03-29T18:01:48.470Z,11.50
2019-03-29T18:04:22.923Z,11.40
2019-03-29T18:06:57.398Z,11.40
2019-03-29T18:09:34.508Z,11.40
2019-03-29T18:12:11.481Z,11.30
2019-03-29T18:14:46.146Z,11.20
2019-03-29T18:17:23.130Z,11.20
2019-03-29T18:19:58.643Z,11.20
2019-03-29T18:22:33.286Z,11.20
2019-03-29T18:25:07.798Z,11.10
2019-03-29T18:27:42.306Z,11.00
2019-03-29T18:30:16.825Z,11.00
2019-03-29T18:32:52.954Z,10.90
2019-03-29T18:35:27.405Z,10.80
2019-03-29T18:38:01.925Z,10.70
2019-03-29T18:40:36.379Z,10.70
2019-03-29T18:43:10.876Z,10.50
2019-03-29T18:45:46.402Z,10.50
2019-03-29T18:48:20.842Z,10.40
2019-03-29T18:50:55.264Z,10.40
2019-03-29T18:53:29.748Z,10.50
2019-03-29T18:56:04.189Z,10.40
2019-03-29T18:58:38.663Z,10.40
2019-03-29T19:01:13.066Z,10.40
2019-03-29T19:03:47.899Z,10.40
2019-03-29T19:06:23.038Z,10.40
2019-03-29T19:08:59.281Z,10.40
2019-03-29T19:11:35.823Z,10.30
2019-03-29T19:14:11.778Z,10.30
2019-03-29T19:16:58.372Z,10.30
2019-03-29T19:19:23.629Z,10.30
2019-03-29T19:21:58.195Z,10.30
2019-03-29T19:24:34.079Z,10.30
2019-03-29T19:27:10.335Z,10.30
2019-03-29T19:29:45.503Z,10.30
2019-03-29T19:32:20.214Z,10.20
2019-03-29T19:34:54.863Z,10.20
2019-03-29T19:37:29.380Z,10.10
2019-03-29T19:40:05.987Z,10.10
2019-03-29T19:42:40.562Z,10.10
2019-03-29T19:45:15.780Z,10.00
2019-03-29T19:47:50.292Z,10.00
2019-03-29T19:50:24.767Z,10.00
2019-03-29T19:52:59.250Z,10.00
2019-03-29T19:55:33.766Z,10.00
2019-03-29T19:58:08.200Z,9.90
2019-03-29T20:00:42.702Z,9.90
2019-03-29T20:03:17.104Z,9.90
2019-03-29T20:05:54.381Z,9.80
2019-03-29T20:08:28.888Z,9.80
2019-03-29T20:11:03.705Z,9.80
2019-03-29T20:13:38.212Z,9.80
2019-03-29T20:16:15.721Z,9.90
2019-03-29T20:18:50.154Z,9.80
2019-03-29T20:21:24.629Z,9.80
2019-03-29T20:23:59.068Z,9.90
2019-03-29T20:26:34.212Z,9.90
2019-03-29T20:29:09.319Z,9.80
2019-03-29T20:31:44.465Z,9.90
2019-03-29T20:34:18.910Z,9.90
2019-03-29T20:36:53.391Z,9.90
2019-03-29T20:39:29.465Z,9.80
2019-03-29T20:42:05.582Z,9.70
2019-03-29T20:44:41.719Z,9.70
2019-03-29T20:47:16.185Z,9.70
2019-03-29T20:49:52.254Z,9.70
2019-03-29T20:52:28.022Z,9.70
2019-03-29T20:55:02.462Z,9.70
2019-03-29T20:57:36.931Z,9.60
2019-03-29T21:00:12.501Z,9.60
2019-03-29T21:02:46.930Z,9.60
2019-03-29T21:05:21.424Z,9.60
2019-03-29T21:07:55.980Z,9.60
2019-03-29T21:10:30.483Z,9.60
2019-03-29T21:13:07.070Z,9.60
2019-03-29T21:15:42.853Z,9.60
2019-03-29T21:18:17.932Z,9.60
2019-03-29T21:20:52.951Z,9.60
2019-03-29T21:23:27.424Z,9.60
2019-03-29T21:26:01.859Z,9.60
2019-03-29T21:28:36.339Z,9.70
2019-03-29T21:31:10.861Z,9.60
2019-03-29T21:33:45.328Z,9.60
2019-03-29T21:36:19.776Z,9.60
2019-03-29T21:38:54.242Z,9.60
2019-03-29T21:41:28.744Z,9.60
2019-03-29T21:44:03.585Z,9.50
2019-03-29T21:46:38.498Z,9.50
2019-03-29T21:49:12.978Z,9.50
2019-03-29T21:51:47.411Z,9.50
2019-03-29T21:54:22.256Z,9.40
2019-03-29T21:56:56.864Z,9.40
2019-03-29T21:59:31.606Z,9.40
2019-03-29T22:02:06.059Z,9.30
2019-03-29T22:04:42.155Z,9.30
2019-03-29T22:07:16.597Z,9.20
2019-03-29T22:09:51.245Z,9.20
2019-03-29T22:12:26.151Z,9.20
2019-03-29T22:15:00.637Z,9.20
2019-03-29T22:17:35.062Z,9.10
2019-03-29T22:20:10.883Z,9.20
2019-03-29T22:22:45.394Z,9.10
2019-03-29T22:25:20.008Z,9.10
2019-03-29T22:27:54.439Z,9.10
2019-03-29T22:30:28.907Z,9.20
2019-03-29T22:33:04.107Z,9.10
2019-03-29T22:35:38.723Z,9.10
2019-03-29T22:38:13.174Z,9.10
2019-03-29T22:40:47.853Z,9.00
2019-03-29T22:43:22.284Z,9.00
2019-03-29T22:45:58.423Z,9.00
2019-03-29T22:48:32.935Z,8.90
2019-03-29T22:51:07.404Z,9.00
2019-03-29T22:53:42.920Z,9.00
2019-03-29T22:56:18.458Z,9.00
2019-03-29T22:58:52.902Z,9.00
2019-03-29T23:01:27.374Z,9.00
2019-03-29T23:04:03.607Z,9.00
2019-03-29T23:06:37.934Z,8.90
2019-03-29T23:09:12.647Z,8.90
2019-03-29T23:11:47.555Z,9.00
2019-03-29T23:14:22.076Z,9.00
2019-03-29T23:16:57.228Z,8.90
2019-03-29T23:19:31.671Z,9.00
2019-03-29T23:22:06.154Z,8.90
2019-03-29T23:24:40.597Z,8.80
2019-03-29T23:27:15.067Z,8.80
2019-03-29T23:29:49.507Z,8.80
2019-03-29T23:32:23.975Z,8.80
2019-03-29T23:34:58.417Z,8.80
2019-03-29T23:37:34.533Z,8.80
2019-03-29T23:40:10.605Z,8.80
2019-03-29T23:42:46.724Z,8.80
2019-03-29T23:45:21.161Z,8.80
2019-03-29T23:47:55.640Z,8.70
2019-03-29T23:50:30.080Z,8.70
2019-03-29T23:53:04.554Z,8.70
2019-03-29T23:55:38.997Z,8.80
2019-03-29T23:58:13.479Z,8.80
